sensor_id;sensor_type;location;lat;lon;timestamp;P1;durP1;ratioP1;P2;durP2;ratioP2
40204;SDS011;26963;42.666;23.366;2022-12-01T00:00:35;1.15;;;0.90;;
40204;SDS011;26963;42.666;23.366;2022-12-01T00:03:01;2.25;;;1.08;;
40204;SDS011;26963;42.666;23.366;2022-12-01T00:05:27;0.95;;;0.90;;
40204;SDS011;26963;42.666;23.366;2022-12-01T00:07:52;1.00;;;0.90;;
40204;SDS011;26963;42.666;23.366;2022-12-01T00:10:18;1.00;;;0.80;;
40204;SDS011;26963;42.666;23.366;2022-12-01T00:12:53;1.33;;;0.90;;
40204;SDS011;26963;42.666;23.366;2022-12-01T00:15:21;0.93;;;0.80;;
40204;SDS011;26963;42.666;23.366;2022-12-01T00:17:47;1.67;;;0.90;;
40204;SDS011;26963;42.666;23.366;2022-12-01T00:20:14;0.75;;;0.75;;
40204;SDS011;26963;42.666;23.366;2022-12-01T00:22:41;0.95;;;0.90;;
40204;SDS011;26963;42.666;23.366;2022-12-01T00:25:11;1.40;;;0.82;;
40204;SDS011;26963;42.666;23.366;2022-12-01T00:27:37;1.23;;;1.00;;
40204;SDS011;26963;42.666;23.366;2022-12-01T00:30:04;0.82;;;0.82;;
40204;SDS011;26963;42.666;23.366;2022-12-01T00:32:30;0.95;;;0.90;;
40204;SDS011;26963;42.666;23.366;2022-12-01T00:34:56;0.95;;;0.82;;
40204;SDS011;26963;42.666;23.366;2022-12-01T00:37:22;1.77;;;0.93;;
40204;SDS011;26963;42.666;23.366;2022-12-01T00:39:47;0.90;;;0.80;;
40204;SDS011;26963;42.666;23.366;2022-12-01T00:42:13;1.13;;;0.80;;
40204;SDS011;26963;42.666;23.366;2022-12-01T00:44:38;2.30;;;0.85;;
40204;SDS011;26963;42.666;23.366;2022-12-01T00:47:04;0.75;;;0.75;;
40204;SDS011;26963;42.666;23.366;2022-12-01T00:49:30;1.60;;;0.98;;
40204;SDS011;26963;42.666;23.366;2022-12-01T00:51:55;1.55;;;1.02;;
40204;SDS011;26963;42.666;23.366;2022-12-01T00:54:21;1.05;;;0.90;;
40204;SDS011;26963;42.666;23.366;2022-12-01T00:56:47;1.65;;;1.05;;
40204;SDS011;26963;42.666;23.366;2022-12-01T00:59:12;0.80;;;0.80;;
40204;SDS011;26963;42.666;23.366;2022-12-01T01:01:38;1.30;;;0.90;;
40204;SDS011;26963;42.666;23.366;2022-12-01T01:04:03;1.70;;;0.88;;
40204;SDS011;26963;42.666;23.366;2022-12-01T01:06:29;1.25;;;1.02;;
40204;SDS011;26963;42.666;23.366;2022-12-01T01:08:55;1.05;;;0.95;;
40204;SDS011;26963;42.666;23.366;2022-12-01T01:11:20;0.80;;;0.80;;
40204;SDS011;26963;42.666;23.366;2022-12-01T01:13:46;1.35;;;1.00;;
40204;SDS011;26963;42.666;23.366;2022-12-01T01:16:16;2.80;;;0.98;;
40204;SDS011;26963;42.666;23.366;2022-12-01T01:18:44;1.02;;;0.93;;
40204;SDS011;26963;42.666;23.366;2022-12-01T01:21:11;1.85;;;0.80;;
40204;SDS011;26963;42.666;23.366;2022-12-01T01:23:38;2.22;;;1.25;;
40204;SDS011;26963;42.666;23.366;2022-12-01T01:26:23;1.10;;;0.80;;
40204;SDS011;26963;42.666;23.366;2022-12-01T01:28:51;0.82;;;0.80;;
40204;SDS011;26963;42.666;23.366;2022-12-01T01:31:21;1.00;;;0.90;;
40204;SDS011;26963;42.666;23.366;2022-12-01T01:33:48;1.13;;;0.90;;
40204;SDS011;26963;42.666;23.366;2022-12-01T01:36:14;1.58;;;0.95;;
40204;SDS011;26963;42.666;23.366;2022-12-01T01:38:41;0.75;;;0.75;;
40204;SDS011;26963;42.666;23.366;2022-12-01T01:41:07;2.33;;;0.73;;
40204;SDS011;26963;42.666;23.366;2022-12-01T01:43:44;0.70;;;0.70;;
40204;SDS011;26963;42.666;23.366;2022-12-01T01:46:18;1.63;;;0.85;;
40204;SDS011;26963;42.666;23.366;2022-12-01T01:48:46;0.63;;;0.63;;
40204;SDS011;26963;42.666;23.366;2022-12-01T01:51:18;0.70;;;0.70;;
40204;SDS011;26963;42.666;23.366;2022-12-01T01:53:48;0.95;;;0.88;;
40204;SDS011;26963;42.666;23.366;2022-12-01T01:56:18;0.70;;;0.70;;
40204;SDS011;26963;42.666;23.366;2022-12-01T01:58:43;1.48;;;0.85;;
40204;SDS011;26963;42.666;23.366;2022-12-01T02:01:09;0.93;;;0.80;;
40204;SDS011;26963;42.666;23.366;2022-12-01T02:03:35;0.50;;;0.50;;
40204;SDS011;26963;42.666;23.366;2022-12-01T02:06:03;1.33;;;0.85;;
40204;SDS011;26963;42.666;23.366;2022-12-01T02:08:31;1.38;;;0.77;;
40204;SDS011;26963;42.666;23.366;2022-12-01T02:13:56;1.15;;;0.85;;
40204;SDS011;26963;42.666;23.366;2022-12-01T02:30:15;0.85;;;0.68;;
40204;SDS011;26963;42.666;23.366;2022-12-01T02:33:06;0.65;;;0.65;;
40204;SDS011;26963;42.666;23.366;2022-12-01T02:35:42;0.70;;;0.57;;
40204;SDS011;26963;42.666;23.366;2022-12-01T02:38:13;1.75;;;0.70;;
40204;SDS011;26963;42.666;23.366;2022-12-01T02:40:44;0.63;;;0.63;;
40204;SDS011;26963;42.666;23.366;2022-12-01T02:48:30;1.25;;;0.68;;
40204;SDS011;26963;42.666;23.366;2022-12-01T02:51:01;1.20;;;0.85;;
40204;SDS011;26963;42.666;23.366;2022-12-01T02:53:37;1.20;;;0.85;;
40204;SDS011;26963;42.666;23.366;2022-12-01T02:56:04;0.60;;;0.60;;
40204;SDS011;26963;42.666;23.366;2022-12-01T02:58:31;0.63;;;0.60;;
40204;SDS011;26963;42.666;23.366;2022-12-01T03:01:05;0.55;;;0.52;;
40204;SDS011;26963;42.666;23.366;2022-12-01T03:11:38;1.35;;;0.70;;
40204;SDS011;26963;42.666;23.366;2022-12-01T03:14:21;0.60;;;0.60;;
40204;SDS011;26963;42.666;23.366;2022-12-01T03:16:56;0.75;;;0.70;;
40204;SDS011;26963;42.666;23.366;2022-12-01T03:19:32;1.88;;;0.52;;
40204;SDS011;26963;42.666;23.366;2022-12-01T03:22:22;1.00;;;0.60;;
40204;SDS011;26963;42.666;23.366;2022-12-01T03:24:53;0.73;;;0.60;;
40204;SDS011;26963;42.666;23.366;2022-12-01T03:27:20;0.50;;;0.50;;
40204;SDS011;26963;42.666;23.366;2022-12-01T03:29:50;1.63;;;0.73;;
40204;SDS011;26963;42.666;23.366;2022-12-01T03:32:24;0.38;;;0.38;;
40204;SDS011;26963;42.666;23.366;2022-12-01T03:35:03;0.98;;;0.45;;
40204;SDS011;26963;42.666;23.366;2022-12-01T03:37:41;0.80;;;0.75;;
40204;SDS011;26963;42.666;23.366;2022-12-01T03:40:13;0.52;;;0.52;;
40204;SDS011;26963;42.666;23.366;2022-12-01T03:45:13;0.70;;;0.70;;
40204;SDS011;26963;42.666;23.366;2022-12-01T03:47:42;0.75;;;0.70;;
40204;SDS011;26963;42.666;23.366;2022-12-01T03:50:08;1.17;;;0.57;;
40204;SDS011;26963;42.666;23.366;2022-12-01T03:55:28;1.23;;;0.90;;
40204;SDS011;26963;42.666;23.366;2022-12-01T03:58:02;1.52;;;0.90;;
40204;SDS011;26963;42.666;23.366;2022-12-01T04:00:43;0.70;;;0.70;;
40204;SDS011;26963;42.666;23.366;2022-12-01T04:03:17;0.90;;;0.70;;
40204;SDS011;26963;42.666;23.366;2022-12-01T04:05:44;1.40;;;0.80;;
40204;SDS011;26963;42.666;23.366;2022-12-01T04:08:10;0.73;;;0.73;;
40204;SDS011;26963;42.666;23.366;2022-12-01T04:10:35;0.70;;;0.70;;
40204;SDS011;26963;42.666;23.366;2022-12-01T04:13:01;0.95;;;0.88;;
40204;SDS011;26963;42.666;23.366;2022-12-01T04:15:26;0.70;;;0.65;;
40204;SDS011;26963;42.666;23.366;2022-12-01T04:17:52;1.27;;;0.60;;
40204;SDS011;26963;42.666;23.366;2022-12-01T04:20:18;1.63;;;1.15;;
40204;SDS011;26963;42.666;23.366;2022-12-01T04:22:44;1.20;;;0.70;;
40204;SDS011;26963;42.666;23.366;2022-12-01T04:25:09;2.05;;;0.70;;
40204;SDS011;26963;42.666;23.366;2022-12-01T04:27:36;1.00;;;0.90;;
40204;SDS011;26963;42.666;23.366;2022-12-01T04:30:03;0.93;;;0.82;;
40204;SDS011;26963;42.666;23.366;2022-12-01T04:32:29;2.30;;;0.80;;
40204;SDS011;26963;42.666;23.366;2022-12-01T04:34:55;1.30;;;0.88;;
40204;SDS011;26963;42.666;23.366;2022-12-01T04:37:20;0.68;;;0.68;;
40204;SDS011;26963;42.666;23.366;2022-12-01T04:39:46;2.03;;;0.88;;
40204;SDS011;26963;42.666;23.366;2022-12-01T04:42:11;1.85;;;1.50;;
40204;SDS011;26963;42.666;23.366;2022-12-01T04:44:37;1.25;;;1.00;;
40204;SDS011;26963;42.666;23.366;2022-12-01T04:47:03;0.98;;;0.80;;
40204;SDS011;26963;42.666;23.366;2022-12-01T04:49:30;1.95;;;1.02;;
40204;SDS011;26963;42.666;23.366;2022-12-01T04:51:55;1.77;;;0.90;;
40204;SDS011;26963;42.666;23.366;2022-12-01T04:54:21;2.20;;;0.90;;
40204;SDS011;26963;42.666;23.366;2022-12-01T04:56:47;0.85;;;0.73;;
40204;SDS011;26963;42.666;23.366;2022-12-01T04:59:13;1.67;;;1.27;;
40204;SDS011;26963;42.666;23.366;2022-12-01T05:01:38;4.25;;;1.67;;
40204;SDS011;26963;42.666;23.366;2022-12-01T05:04:04;2.05;;;0.98;;
40204;SDS011;26963;42.666;23.366;2022-12-01T05:06:30;1.63;;;1.08;;
40204;SDS011;26963;42.666;23.366;2022-12-01T05:08:57;1.30;;;0.80;;
40204;SDS011;26963;42.666;23.366;2022-12-01T05:11:25;1.38;;;1.20;;
40204;SDS011;26963;42.666;23.366;2022-12-01T05:13:51;1.23;;;1.13;;
40204;SDS011;26963;42.666;23.366;2022-12-01T05:18:48;3.22;;;1.23;;
40204;SDS011;26963;42.666;23.366;2022-12-01T05:21:37;2.67;;;1.00;;
40204;SDS011;26963;42.666;23.366;2022-12-01T05:24:04;1.20;;;1.10;;
40204;SDS011;26963;42.666;23.366;2022-12-01T05:26:30;2.42;;;1.13;;
40204;SDS011;26963;42.666;23.366;2022-12-01T05:28:56;0.80;;;0.80;;
40204;SDS011;26963;42.666;23.366;2022-12-01T05:31:22;2.35;;;1.08;;
40204;SDS011;26963;42.666;23.366;2022-12-01T05:33:47;2.33;;;1.20;;
40204;SDS011;26963;42.666;23.366;2022-12-01T05:36:13;1.90;;;1.00;;
40204;SDS011;26963;42.666;23.366;2022-12-01T05:38:38;1.73;;;1.13;;
40204;SDS011;26963;42.666;23.366;2022-12-01T05:41:04;2.72;;;1.25;;
40204;SDS011;26963;42.666;23.366;2022-12-01T05:43:29;2.40;;;1.10;;
40204;SDS011;26963;42.666;23.366;2022-12-01T05:45:55;1.73;;;1.00;;
40204;SDS011;26963;42.666;23.366;2022-12-01T05:48:22;1.55;;;1.13;;
40204;SDS011;26963;42.666;23.366;2022-12-01T05:50:47;3.67;;;1.20;;
40204;SDS011;26963;42.666;23.366;2022-12-01T05:53:13;3.17;;;1.25;;
40204;SDS011;26963;42.666;23.366;2022-12-01T05:55:39;2.92;;;1.40;;
40204;SDS011;26963;42.666;23.366;2022-12-01T05:58:05;1.98;;;1.25;;
40204;SDS011;26963;42.666;23.366;2022-12-01T06:00:31;1.48;;;1.10;;
40204;SDS011;26963;42.666;23.366;2022-12-01T06:02:57;2.90;;;1.05;;
40204;SDS011;26963;42.666;23.366;2022-12-01T06:05:22;2.13;;;1.00;;
40204;SDS011;26963;42.666;23.366;2022-12-01T06:07:48;1.50;;;1.10;;
40204;SDS011;26963;42.666;23.366;2022-12-01T06:10:13;1.95;;;1.00;;
40204;SDS011;26963;42.666;23.366;2022-12-01T06:12:39;1.42;;;0.90;;
40204;SDS011;26963;42.666;23.366;2022-12-01T06:15:05;2.35;;;1.40;;
40204;SDS011;26963;42.666;23.366;2022-12-01T06:17:31;4.07;;;1.90;;
40204;SDS011;26963;42.666;23.366;2022-12-01T06:19:57;2.80;;;1.20;;
40204;SDS011;26963;42.666;23.366;2022-12-01T06:22:23;1.77;;;1.17;;
40204;SDS011;26963;42.666;23.366;2022-12-01T06:24:48;1.58;;;1.10;;
40204;SDS011;26963;42.666;23.366;2022-12-01T06:27:14;1.48;;;1.15;;
40204;SDS011;26963;42.666;23.366;2022-12-01T06:29:40;1.55;;;1.10;;
40204;SDS011;26963;42.666;23.366;2022-12-01T06:32:05;2.15;;;1.30;;
40204;SDS011;26963;42.666;23.366;2022-12-01T06:34:31;1.20;;;0.85;;
40204;SDS011;26963;42.666;23.366;2022-12-01T06:36:56;1.63;;;1.05;;
40204;SDS011;26963;42.666;23.366;2022-12-01T06:39:22;1.83;;;1.30;;
40204;SDS011;26963;42.666;23.366;2022-12-01T06:41:47;1.58;;;1.08;;
40204;SDS011;26963;42.666;23.366;2022-12-01T06:44:13;3.45;;;1.30;;
40204;SDS011;26963;42.666;23.366;2022-12-01T06:46:38;3.35;;;1.30;;
40204;SDS011;26963;42.666;23.366;2022-12-01T06:49:04;1.67;;;1.05;;
40204;SDS011;26963;42.666;23.366;2022-12-01T06:51:30;1.45;;;0.95;;
40204;SDS011;26963;42.666;23.366;2022-12-01T06:53:58;2.25;;;1.38;;
40204;SDS011;26963;42.666;23.366;2022-12-01T06:56:24;3.00;;;1.40;;
40204;SDS011;26963;42.666;23.366;2022-12-01T06:58:50;2.28;;;1.33;;
40204;SDS011;26963;42.666;23.366;2022-12-01T07:01:16;2.00;;;1.25;;
40204;SDS011;26963;42.666;23.366;2022-12-01T07:03:41;1.63;;;1.15;;
40204;SDS011;26963;42.666;23.366;2022-12-01T07:06:07;2.00;;;1.40;;
40204;SDS011;26963;42.666;23.366;2022-12-01T07:08:34;3.20;;;1.58;;
40204;SDS011;26963;42.666;23.366;2022-12-01T07:11:00;2.83;;;1.52;;
40204;SDS011;26963;42.666;23.366;2022-12-01T07:13:28;2.05;;;1.30;;
40204;SDS011;26963;42.666;23.366;2022-12-01T07:15:54;4.15;;;1.73;;
40204;SDS011;26963;42.666;23.366;2022-12-01T07:18:19;3.38;;;1.70;;
40204;SDS011;26963;42.666;23.366;2022-12-01T07:20:45;5.07;;;1.70;;
40204;SDS011;26963;42.666;23.366;2022-12-01T07:23:11;3.30;;;1.73;;
40204;SDS011;26963;42.666;23.366;2022-12-01T07:25:36;2.80;;;1.40;;
40204;SDS011;26963;42.666;23.366;2022-12-01T07:28:02;2.08;;;1.30;;
40204;SDS011;26963;42.666;23.366;2022-12-01T07:30:28;1.70;;;1.10;;
40204;SDS011;26963;42.666;23.366;2022-12-01T07:32:53;1.85;;;1.30;;
40204;SDS011;26963;42.666;23.366;2022-12-01T07:35:19;1.85;;;1.10;;
40204;SDS011;26963;42.666;23.366;2022-12-01T07:37:44;1.38;;;1.10;;
40204;SDS011;26963;42.666;23.366;2022-12-01T07:40:10;1.80;;;1.08;;
40204;SDS011;26963;42.666;23.366;2022-12-01T07:42:40;2.10;;;1.23;;
40204;SDS011;26963;42.666;23.366;2022-12-01T07:45:06;2.15;;;1.10;;
40204;SDS011;26963;42.666;23.366;2022-12-01T07:47:32;3.05;;;1.52;;
40204;SDS011;26963;42.666;23.366;2022-12-01T07:49:57;3.15;;;1.30;;
40204;SDS011;26963;42.666;23.366;2022-12-01T07:52:23;2.88;;;1.30;;
40204;SDS011;26963;42.666;23.366;2022-12-01T07:54:49;2.50;;;1.50;;
40204;SDS011;26963;42.666;23.366;2022-12-01T07:57:14;1.85;;;1.30;;
40204;SDS011;26963;42.666;23.366;2022-12-01T07:59:40;3.20;;;1.45;;
40204;SDS011;26963;42.666;23.366;2022-12-01T08:02:06;2.00;;;1.23;;
40204;SDS011;26963;42.666;23.366;2022-12-01T08:04:33;3.88;;;1.40;;
40204;SDS011;26963;42.666;23.366;2022-12-01T08:06:58;2.22;;;1.23;;
40204;SDS011;26963;42.666;23.366;2022-12-01T08:09:24;2.10;;;1.27;;
40204;SDS011;26963;42.666;23.366;2022-12-01T08:11:49;3.47;;;1.10;;
40204;SDS011;26963;42.666;23.366;2022-12-01T08:14:15;4.07;;;1.63;;
40204;SDS011;26963;42.666;23.366;2022-12-01T08:16:40;3.55;;;1.50;;
40204;SDS011;26963;42.666;23.366;2022-12-01T08:19:08;3.55;;;1.48;;
40204;SDS011;26963;42.666;23.366;2022-12-01T08:21:34;1.77;;;1.15;;
40204;SDS011;26963;42.666;23.366;2022-12-01T08:24:01;3.15;;;1.38;;
40204;SDS011;26963;42.666;23.366;2022-12-01T08:26:27;2.10;;;1.35;;
40204;SDS011;26963;42.666;23.366;2022-12-01T08:28:53;2.30;;;1.50;;
40204;SDS011;26963;42.666;23.366;2022-12-01T08:31:20;3.30;;;1.17;;
40204;SDS011;26963;42.666;23.366;2022-12-01T08:36:17;3.70;;;1.40;;
40204;SDS011;26963;42.666;23.366;2022-12-01T08:38:45;4.45;;;1.45;;
40204;SDS011;26963;42.666;23.366;2022-12-01T08:41:12;4.65;;;1.70;;
40204;SDS011;26963;42.666;23.366;2022-12-01T08:43:39;6.03;;;1.60;;
40204;SDS011;26963;42.666;23.366;2022-12-01T08:46:08;2.45;;;1.50;;
40204;SDS011;26963;42.666;23.366;2022-12-01T08:48:36;3.42;;;1.33;;
40204;SDS011;26963;42.666;23.366;2022-12-01T08:51:03;2.13;;;1.30;;
40204;SDS011;26963;42.666;23.366;2022-12-01T08:53:30;5.75;;;1.65;;
40204;SDS011;26963;42.666;23.366;2022-12-01T08:56:01;3.35;;;1.70;;
40204;SDS011;26963;42.666;23.366;2022-12-01T08:58:29;4.22;;;1.55;;
40204;SDS011;26963;42.666;23.366;2022-12-01T09:01:02;2.72;;;1.48;;
40204;SDS011;26963;42.666;23.366;2022-12-01T09:03:30;2.85;;;1.40;;
40204;SDS011;26963;42.666;23.366;2022-12-01T09:06:12;3.90;;;1.55;;
40204;SDS011;26963;42.666;23.366;2022-12-01T09:08:40;1.98;;;1.25;;
40204;SDS011;26963;42.666;23.366;2022-12-01T09:11:08;2.25;;;1.35;;
40204;SDS011;26963;42.666;23.366;2022-12-01T09:13:36;2.85;;;1.55;;
40204;SDS011;26963;42.666;23.366;2022-12-01T09:16:07;4.38;;;1.50;;
40204;SDS011;26963;42.666;23.366;2022-12-01T09:18:35;6.13;;;3.30;;
40204;SDS011;26963;42.666;23.366;2022-12-01T09:23:37;6.63;;;1.80;;
40204;SDS011;26963;42.666;23.366;2022-12-01T09:26:04;3.85;;;1.95;;
40204;SDS011;26963;42.666;23.366;2022-12-01T09:28:30;5.32;;;1.85;;
40204;SDS011;26963;42.666;23.366;2022-12-01T09:30:55;4.10;;;1.73;;
40204;SDS011;26963;42.666;23.366;2022-12-01T09:33:27;4.43;;;1.80;;
40204;SDS011;26963;42.666;23.366;2022-12-01T09:35:56;3.90;;;1.35;;
40204;SDS011;26963;42.666;23.366;2022-12-01T09:38:23;2.60;;;1.48;;
40204;SDS011;26963;42.666;23.366;2022-12-01T09:40:48;2.92;;;1.40;;
40204;SDS011;26963;42.666;23.366;2022-12-01T09:43:18;3.30;;;1.48;;
40204;SDS011;26963;42.666;23.366;2022-12-01T09:45:49;2.42;;;1.30;;
40204;SDS011;26963;42.666;23.366;2022-12-01T09:50:53;2.15;;;1.35;;
40204;SDS011;26963;42.666;23.366;2022-12-01T09:53:20;2.22;;;1.20;;
40204;SDS011;26963;42.666;23.366;2022-12-01T09:55:48;3.65;;;1.30;;
40204;SDS011;26963;42.666;23.366;2022-12-01T09:58:18;3.42;;;1.30;;
40204;SDS011;26963;42.666;23.366;2022-12-01T10:00:48;2.58;;;1.30;;
40204;SDS011;26963;42.666;23.366;2022-12-01T10:06:01;7.47;;;1.40;;
40204;SDS011;26963;42.666;23.366;2022-12-01T10:08:34;4.30;;;1.60;;
40204;SDS011;26963;42.666;23.366;2022-12-01T10:11:20;2.75;;;1.40;;
40204;SDS011;26963;42.666;23.366;2022-12-01T10:13:57;2.97;;;1.27;;
40204;SDS011;26963;42.666;23.366;2022-12-01T10:16:29;4.22;;;1.45;;
40204;SDS011;26963;42.666;23.366;2022-12-01T10:19:04;3.20;;;1.40;;
40204;SDS011;26963;42.666;23.366;2022-12-01T10:21:59;2.88;;;1.48;;
40204;SDS011;26963;42.666;23.366;2022-12-01T10:27:23;1.85;;;1.10;;
40204;SDS011;26963;42.666;23.366;2022-12-01T10:35:23;2.05;;;1.20;;
40204;SDS011;26963;42.666;23.366;2022-12-01T10:37:57;3.05;;;1.52;;
40204;SDS011;26963;42.666;23.366;2022-12-01T10:40:25;4.57;;;1.67;;
40204;SDS011;26963;42.666;23.366;2022-12-01T10:42:52;2.83;;;1.48;;
40204;SDS011;26963;42.666;23.366;2022-12-01T10:45:22;2.25;;;1.58;;
40204;SDS011;26963;42.666;23.366;2022-12-01T10:50:39;3.50;;;1.70;;
40204;SDS011;26963;42.666;23.366;2022-12-01T10:53:08;4.10;;;1.60;;
40204;SDS011;26963;42.666;23.366;2022-12-01T10:55:44;3.13;;;1.63;;
40204;SDS011;26963;42.666;23.366;2022-12-01T10:58:13;3.17;;;1.60;;
40204;SDS011;26963;42.666;23.366;2022-12-01T11:00:41;1.60;;;1.20;;
40204;SDS011;26963;42.666;23.366;2022-12-01T11:03:19;2.50;;;1.40;;
40204;SDS011;26963;42.666;23.366;2022-12-01T11:05:56;3.20;;;1.60;;
40204;SDS011;26963;42.666;23.366;2022-12-01T11:08:35;4.20;;;1.40;;
40204;SDS011;26963;42.666;23.366;2022-12-01T11:11:04;3.92;;;1.25;;
40204;SDS011;26963;42.666;23.366;2022-12-01T11:13:32;2.88;;;1.38;;
40204;SDS011;26963;42.666;23.366;2022-12-01T11:16:01;2.67;;;1.50;;
40204;SDS011;26963;42.666;23.366;2022-12-01T11:18:32;3.17;;;1.42;;
40204;SDS011;26963;42.666;23.366;2022-12-01T11:21:06;2.90;;;1.42;;
40204;SDS011;26963;42.666;23.366;2022-12-01T11:23:45;3.15;;;1.58;;
40204;SDS011;26963;42.666;23.366;2022-12-01T11:29:03;4.40;;;1.33;;
40204;SDS011;26963;42.666;23.366;2022-12-01T11:31:47;2.08;;;1.25;;
40204;SDS011;26963;42.666;23.366;2022-12-01T11:36:44;2.92;;;1.55;;
40204;SDS011;26963;42.666;23.366;2022-12-01T11:42:25;2.85;;;1.35;;
40204;SDS011;26963;42.666;23.366;2022-12-01T11:45:37;3.67;;;1.25;;
40204;SDS011;26963;42.666;23.366;2022-12-01T11:51:03;1.27;;;0.98;;
40204;SDS011;26963;42.666;23.366;2022-12-01T11:54:38;3.38;;;1.30;;
40204;SDS011;26963;42.666;23.366;2022-12-01T11:56:44;2.15;;;1.20;;
40204;SDS011;26963;42.666;23.366;2022-12-01T11:59:11;2.38;;;1.40;;
40204;SDS011;26963;42.666;23.366;2022-12-01T12:18:37;2.72;;;1.30;;
40204;SDS011;26963;42.666;23.366;2022-12-01T12:26:28;2.10;;;1.50;;
40204;SDS011;26963;42.666;23.366;2022-12-01T12:40:32;3.35;;;1.30;;
40204;SDS011;26963;42.666;23.366;2022-12-01T12:46:09;2.35;;;1.30;;
40204;SDS011;26963;42.666;23.366;2022-12-01T12:51:12;2.58;;;1.45;;
40204;SDS011;26963;42.666;23.366;2022-12-01T12:54:09;3.15;;;1.30;;
40204;SDS011;26963;42.666;23.366;2022-12-01T12:56:53;2.30;;;1.35;;
40204;SDS011;26963;42.666;23.366;2022-12-01T12:59:27;4.53;;;1.30;;
40204;SDS011;26963;42.666;23.366;2022-12-01T13:02:14;3.95;;;1.55;;
40204;SDS011;26963;42.666;23.366;2022-12-01T13:04:48;5.45;;;1.60;;
40204;SDS011;26963;42.666;23.366;2022-12-01T13:09:52;3.70;;;1.65;;
40204;SDS011;26963;42.666;23.366;2022-12-01T13:12:34;7.50;;;1.80;;
40204;SDS011;26963;42.666;23.366;2022-12-01T13:15:16;1.98;;;1.40;;
40204;SDS011;26963;42.666;23.366;2022-12-01T13:17:45;3.25;;;2.05;;
40204;SDS011;26963;42.666;23.366;2022-12-01T13:20:18;2.33;;;1.25;;
40204;SDS011;26963;42.666;23.366;2022-12-01T13:22:47;4.38;;;1.90;;
40204;SDS011;26963;42.666;23.366;2022-12-01T13:25:16;3.05;;;1.70;;
40204;SDS011;26963;42.666;23.366;2022-12-01T13:27:47;3.50;;;1.70;;
40204;SDS011;26963;42.666;23.366;2022-12-01T13:30:21;3.47;;;1.50;;
40204;SDS011;26963;42.666;23.366;2022-12-01T13:32:48;3.78;;;1.73;;
40204;SDS011;26963;42.666;23.366;2022-12-01T13:35:30;1.95;;;1.40;;
40204;SDS011;26963;42.666;23.366;2022-12-01T13:40:42;2.35;;;1.50;;
40204;SDS011;26963;42.666;23.366;2022-12-01T13:43:16;2.97;;;1.35;;
40204;SDS011;26963;42.666;23.366;2022-12-01T13:45:47;2.72;;;1.48;;
40204;SDS011;26963;42.666;23.366;2022-12-01T13:51:03;1.70;;;1.30;;
40204;SDS011;26963;42.666;23.366;2022-12-01T13:53:35;3.10;;;1.60;;
40204;SDS011;26963;42.666;23.366;2022-12-01T14:03:53;3.13;;;1.60;;
40204;SDS011;26963;42.666;23.366;2022-12-01T14:08:58;5.75;;;1.52;;
40204;SDS011;26963;42.666;23.366;2022-12-01T14:11:29;1.65;;;1.30;;
40204;SDS011;26963;42.666;23.366;2022-12-01T14:13:58;2.87;;;1.37;;
40204;SDS011;26963;42.666;23.366;2022-12-01T14:19:49;2.78;;;1.35;;
40204;SDS011;26963;42.666;23.366;2022-12-01T14:24:59;2.75;;;1.35;;
40204;SDS011;26963;42.666;23.366;2022-12-01T14:27:36;5.13;;;1.70;;
40204;SDS011;26963;42.666;23.366;2022-12-01T14:39:19;3.83;;;1.60;;
40204;SDS011;26963;42.666;23.366;2022-12-01T14:47:18;3.00;;;1.50;;
40204;SDS011;26963;42.666;23.366;2022-12-01T14:54:54;2.33;;;1.40;;
40204;SDS011;26963;42.666;23.366;2022-12-01T15:00:25;4.15;;;1.52;;
40204;SDS011;26963;42.666;23.366;2022-12-01T15:02:52;2.63;;;1.40;;
40204;SDS011;26963;42.666;23.366;2022-12-01T15:05:21;2.97;;;1.25;;
40204;SDS011;26963;42.666;23.366;2022-12-01T15:07:50;3.35;;;1.30;;
40204;SDS011;26963;42.666;23.366;2022-12-01T15:12:45;1.20;;;1.10;;
40204;SDS011;26963;42.666;23.366;2022-12-01T15:15:13;1.20;;;1.08;;
40204;SDS011;26963;42.666;23.366;2022-12-01T15:17:39;1.83;;;1.30;;
40204;SDS011;26963;42.666;23.366;2022-12-01T15:20:25;1.90;;;1.20;;
40204;SDS011;26963;42.666;23.366;2022-12-01T15:23:11;2.10;;;1.30;;
40204;SDS011;26963;42.666;23.366;2022-12-01T15:25:40;4.38;;;1.20;;
40204;SDS011;26963;42.666;23.366;2022-12-01T15:28:14;2.72;;;1.23;;
40204;SDS011;26963;42.666;23.366;2022-12-01T15:30:43;2.03;;;1.25;;
40204;SDS011;26963;42.666;23.366;2022-12-01T15:33:18;2.67;;;1.30;;
40204;SDS011;26963;42.666;23.366;2022-12-01T15:35:49;2.92;;;1.55;;
40204;SDS011;26963;42.666;23.366;2022-12-01T15:38:19;2.83;;;1.50;;
40204;SDS011;26963;42.666;23.366;2022-12-01T15:40:47;2.17;;;1.40;;
40204;SDS011;26963;42.666;23.366;2022-12-01T15:43:19;3.67;;;1.30;;
40204;SDS011;26963;42.666;23.366;2022-12-01T15:46:00;4.50;;;1.80;;
40204;SDS011;26963;42.666;23.366;2022-12-01T15:48:35;1.98;;;1.08;;
40204;SDS011;26963;42.666;23.366;2022-12-01T15:51:08;2.80;;;1.20;;
40204;SDS011;26963;42.666;23.366;2022-12-01T15:53:58;3.10;;;1.27;;
40204;SDS011;26963;42.666;23.366;2022-12-01T15:59:01;2.08;;;1.50;;
40204;SDS011;26963;42.666;23.366;2022-12-01T16:01:36;2.47;;;1.30;;
40204;SDS011;26963;42.666;23.366;2022-12-01T16:04:13;2.45;;;1.20;;
40204;SDS011;26963;42.666;23.366;2022-12-01T16:06:41;3.47;;;1.50;;
40204;SDS011;26963;42.666;23.366;2022-12-01T16:09:33;2.25;;;1.48;;
40204;SDS011;26963;42.666;23.366;2022-12-01T16:14:48;3.35;;;1.80;;
40204;SDS011;26963;42.666;23.366;2022-12-01T16:17:16;4.78;;;1.85;;
40204;SDS011;26963;42.666;23.366;2022-12-01T16:19:42;3.03;;;1.90;;
40204;SDS011;26963;42.666;23.366;2022-12-01T16:29:52;2.60;;;1.52;;
40204;SDS011;26963;42.666;23.366;2022-12-01T16:32:23;1.63;;;1.05;;
40204;SDS011;26963;42.666;23.366;2022-12-01T16:34:54;1.52;;;0.98;;
40204;SDS011;26963;42.666;23.366;2022-12-01T16:37:20;2.78;;;1.20;;
40204;SDS011;26963;42.666;23.366;2022-12-01T16:39:46;3.20;;;1.45;;
40204;SDS011;26963;42.666;23.366;2022-12-01T16:42:15;1.63;;;1.23;;
40204;SDS011;26963;42.666;23.366;2022-12-01T16:44:44;2.90;;;1.27;;
40204;SDS011;26963;42.666;23.366;2022-12-01T16:47:11;2.13;;;1.00;;
40204;SDS011;26963;42.666;23.366;2022-12-01T16:49:37;1.70;;;1.23;;
40204;SDS011;26963;42.666;23.366;2022-12-01T16:52:03;1.60;;;1.00;;
40204;SDS011;26963;42.666;23.366;2022-12-01T16:54:29;2.25;;;1.20;;
40204;SDS011;26963;42.666;23.366;2022-12-01T16:56:54;4.35;;;1.48;;
40204;SDS011;26963;42.666;23.366;2022-12-01T16:59:20;2.40;;;1.23;;
40204;SDS011;26963;42.666;23.366;2022-12-01T17:01:45;3.80;;;1.48;;
40204;SDS011;26963;42.666;23.366;2022-12-01T17:04:11;4.72;;;1.20;;
40204;SDS011;26963;42.666;23.366;2022-12-01T17:06:36;1.65;;;1.13;;
40204;SDS011;26963;42.666;23.366;2022-12-01T17:09:02;1.55;;;0.98;;
40204;SDS011;26963;42.666;23.366;2022-12-01T17:11:28;2.55;;;1.50;;
40204;SDS011;26963;42.666;23.366;2022-12-01T17:13:54;3.25;;;1.40;;
40204;SDS011;26963;42.666;23.366;2022-12-01T17:16:19;3.80;;;1.50;;
40204;SDS011;26963;42.666;23.366;2022-12-01T17:18:45;3.60;;;1.90;;
40204;SDS011;26963;42.666;23.366;2022-12-01T17:21:10;3.00;;;1.90;;
40204;SDS011;26963;42.666;23.366;2022-12-01T17:23:36;5.70;;;2.75;;
40204;SDS011;26963;42.666;23.366;2022-12-01T17:26:07;4.55;;;2.70;;
40204;SDS011;26963;42.666;23.366;2022-12-01T17:28:37;6.90;;;3.10;;
40204;SDS011;26963;42.666;23.366;2022-12-01T17:31:03;4.70;;;2.17;;
40204;SDS011;26963;42.666;23.366;2022-12-01T17:33:29;4.13;;;1.85;;
40204;SDS011;26963;42.666;23.366;2022-12-01T17:36:00;2.97;;;1.48;;
40204;SDS011;26963;42.666;23.366;2022-12-01T17:38:33;3.05;;;1.95;;